createdAt,value
2022-11-09T00:01:04.319Z,58.43
2022-11-09T00:03:33.688Z,59.83
2022-11-09T00:06:03.010Z,54.30
2022-11-09T00:08:31.060Z,61.23
2022-11-09T00:11:04.290Z,59.43
2022-11-09T00:13:36.362Z,58.10
2022-11-09T00:16:05.738Z,57.00
2022-11-09T00:18:35.790Z,62.50
2022-11-09T00:21:07.344Z,58.00
2022-11-09T00:23:37.217Z,64.20
2022-11-09T00:26:07.658Z,61.70
2022-11-09T00:28:37.319Z,62.20
2022-11-09T00:31:07.551Z,58.40
2022-11-09T00:33:38.394Z,69.53
2022-11-09T00:36:08.536Z,68.43
2022-11-09T00:38:40.344Z,61.20
2022-11-09T00:41:10.771Z,67.00
2022-11-09T00:43:41.169Z,75.33
2022-11-09T00:46:10.229Z,61.80
2022-11-09T00:48:41.049Z,67.20
2022-11-09T00:51:10.686Z,64.07
2022-11-09T00:53:40.372Z,68.93
2022-11-09T00:56:11.387Z,68.07
2022-11-09T00:58:41.621Z,66.83
2022-11-09T01:01:13.118Z,68.60
2022-11-09T01:03:46.510Z,70.60
2022-11-09T01:06:16.832Z,66.47
2022-11-09T01:08:45.405Z,66.83
2022-11-09T01:11:17.233Z,70.73
2022-11-09T01:13:46.882Z,61.77
2022-11-09T01:16:16.521Z,65.47
2022-11-09T01:18:47.454Z,67.83
2022-11-09T01:21:18.074Z,63.40
2022-11-09T01:23:47.519Z,60.47
2022-11-09T01:26:16.975Z,57.80
2022-11-09T01:28:46.411Z,59.20
2022-11-09T01:31:16.507Z,58.10
2022-11-09T01:33:47.596Z,57.70
2022-11-09T01:36:18.476Z,55.30
2022-11-09T01:38:46.606Z,60.40
2022-11-09T01:41:17.351Z,54.70
2022-11-09T01:43:46.998Z,57.50
2022-11-09T01:46:19.897Z,61.37
2022-11-09T01:48:53.721Z,62.80
2022-11-09T01:51:26.423Z,60.03
2022-11-09T01:54:05.530Z,54.87
2022-11-09T01:56:34.504Z,63.60
2022-11-09T01:59:05.398Z,56.03
2022-11-09T02:01:35.958Z,58.90
2022-11-09T02:04:15.091Z,62.57
2022-11-09T02:06:43.341Z,60.73
2022-11-09T02:09:14.787Z,64.00
2022-11-09T02:11:43.171Z,58.20
2022-11-09T02:14:13.112Z,64.77
2022-11-09T02:16:43.106Z,63.70
2022-11-09T02:19:14.036Z,62.50
2022-11-09T02:21:43.741Z,66.93
2022-11-09T02:24:13.781Z,71.23
2022-11-09T02:26:45.368Z,64.83
2022-11-09T02:29:16.661Z,83.20
2022-11-09T02:31:47.602Z,73.83
2022-11-09T02:34:18.822Z,62.10
2022-11-09T02:36:49.874Z,66.77
2022-11-09T02:39:24.863Z,72.93
2022-11-09T02:42:09.048Z,72.13
2022-11-09T02:44:42.523Z,68.90
2022-11-09T02:47:11.227Z,70.33
2022-11-09T02:49:40.391Z,78.60
2022-11-09T02:52:11.595Z,69.03
2022-11-09T02:54:41.392Z,80.10
2022-11-09T02:57:10.495Z,66.07
2022-11-09T02:59:40.877Z,73.43
2022-11-09T03:02:10.191Z,69.60
2022-11-09T03:04:39.924Z,74.50
2022-11-09T03:07:09.431Z,72.90
2022-11-09T03:09:40.615Z,68.60
2022-11-09T03:12:23.255Z,70.87
2022-11-09T03:14:54.553Z,77.97
2022-11-09T03:17:23.338Z,72.73
2022-11-09T03:19:52.639Z,71.50
2022-11-09T03:22:21.654Z,65.43
2022-11-09T03:24:52.574Z,71.90
2022-11-09T03:27:22.252Z,68.80
2022-11-09T03:29:51.934Z,65.50
2022-11-09T03:32:22.652Z,66.23
2022-11-09T03:34:51.656Z,68.23
2022-11-09T03:37:22.173Z,70.03
2022-11-09T03:39:52.653Z,70.10
2022-11-09T03:42:22.197Z,67.13
2022-11-09T03:44:51.037Z,67.90
2022-11-09T03:47:20.459Z,66.63
2022-11-09T03:49:49.990Z,67.70
2022-11-09T03:52:18.266Z,66.13
2022-11-09T03:54:47.764Z,65.77
2022-11-09T03:57:17.638Z,59.77
2022-11-09T03:59:45.911Z,66.00
2022-11-09T04:02:14.223Z,65.17
2022-11-09T04:04:43.631Z,67.50
2022-11-09T04:07:12.710Z,68.27
2022-11-09T04:09:42.263Z,72.90
2022-11-09T04:12:10.319Z,73.67
2022-11-09T04:14:40.910Z,70.73
2022-11-09T04:17:09.368Z,68.67
2022-11-09T04:19:38.923Z,65.67
2022-11-09T04:22:07.374Z,64.77
2022-11-09T04:24:36.893Z,68.87
2022-11-09T04:27:05.506Z,70.03
2022-11-09T04:29:34.929Z,64.60
2022-11-09T04:32:07.019Z,63.83
2022-11-09T04:34:36.073Z,69.53
2022-11-09T04:37:04.331Z,65.63
2022-11-09T04:39:34.897Z,66.33
2022-11-09T04:42:03.126Z,68.33
2022-11-09T04:44:32.340Z,62.20
2022-11-09T04:47:07.228Z,63.70
2022-11-09T04:49:36.622Z,72.37
2022-11-09T04:52:05.646Z,57.07
2022-11-09T04:54:34.050Z,65.00
2022-11-09T04:57:02.223Z,69.97
2022-11-09T04:59:30.314Z,60.77
2022-11-09T05:02:00.479Z,59.37
2022-11-09T05:04:30.734Z,72.23
2022-11-09T05:07:00.906Z,68.20
2022-11-09T05:09:28.944Z,72.40
2022-11-09T05:12:01.477Z,75.70
2022-11-09T05:14:30.344Z,63.83
2022-11-09T05:17:00.422Z,70.43
2022-11-09T05:19:31.024Z,65.93
2022-11-09T05:22:22.662Z,65.33
2022-11-09T05:24:51.899Z,71.00
2022-11-09T05:27:21.344Z,72.53
2022-11-09T05:29:49.391Z,69.57
2022-11-09T05:32:18.585Z,77.37
2022-11-09T05:34:47.442Z,66.83
2022-11-09T05:37:20.324Z,66.83
2022-11-09T05:39:48.655Z,69.73
2022-11-09T05:42:18.196Z,68.37
2022-11-09T05:44:46.384Z,74.20
2022-11-09T05:47:15.626Z,70.07
2022-11-09T05:49:44.373Z,74.40
2022-11-09T05:52:16.005Z,62.30
2022-11-09T05:54:45.924Z,65.10
2022-11-09T05:57:15.781Z,72.77
2022-11-09T05:59:44.717Z,73.50
2022-11-09T06:02:14.434Z,65.50
2022-11-09T06:04:43.431Z,69.63
2022-11-09T06:07:21.749Z,73.30
2022-11-09T06:09:52.848Z,66.63
2022-11-09T06:12:21.134Z,67.53
2022-11-09T06:14:49.619Z,63.00
2022-11-09T06:17:18.874Z,71.00
2022-11-09T06:19:47.655Z,64.60
2022-11-09T06:22:18.084Z,62.20
2022-11-09T06:24:46.561Z,66.37
2022-11-09T06:27:17.579Z,58.37
2022-11-09T06:29:46.826Z,56.40
2022-11-09T06:32:16.083Z,66.17
2022-11-09T06:34:44.474Z,68.47
2022-11-09T06:37:13.837Z,66.60
2022-11-09T06:39:42.449Z,56.57
2022-11-09T06:42:11.582Z,59.37
2022-11-09T06:44:46.503Z,58.90
2022-11-09T06:47:16.262Z,54.80
2022-11-09T06:49:44.473Z,58.07
2022-11-09T06:52:13.766Z,53.37
2022-11-09T06:54:42.507Z,55.70
2022-11-09T06:57:12.251Z,60.63
2022-11-09T06:59:42.906Z,55.43
2022-11-09T07:02:16.642Z,63.50
2022-11-09T07:04:45.532Z,59.03
2022-11-09T07:07:14.865Z,62.77
2022-11-09T07:09:43.721Z,56.60
2022-11-09T07:12:13.008Z,57.83
2022-11-09T07:14:42.915Z,55.03
2022-11-09T07:17:12.272Z,56.20
2022-11-09T07:19:40.549Z,57.43
2022-11-09T07:22:09.977Z,50.70
2022-11-09T07:24:38.522Z,51.97
2022-11-09T07:27:08.090Z,56.47
2022-11-09T07:29:36.538Z,47.73
2022-11-09T07:32:11.638Z,58.70
2022-11-09T07:34:40.541Z,55.70
2022-11-09T07:37:09.694Z,47.53
2022-11-09T07:39:38.531Z,53.40
2022-11-09T07:42:08.111Z,45.63
2022-11-09T07:44:38.590Z,52.30
2022-11-09T07:47:08.347Z,58.90
2022-11-09T07:49:36.600Z,51.20
2022-11-09T07:52:06.082Z,51.53
2022-11-09T07:54:36.319Z,49.90
2022-11-09T07:57:05.492Z,48.10
2022-11-09T07:59:33.613Z,48.73
2022-11-09T08:02:03.361Z,50.93
2022-11-09T08:04:33.027Z,60.10
2022-11-09T08:07:02.334Z,51.40
2022-11-09T08:09:30.683Z,59.60
2022-11-09T08:12:04.802Z,55.40
2022-11-09T08:14:34.176Z,57.27
2022-11-09T08:17:02.217Z,62.93
2022-11-09T08:19:32.075Z,56.63
2022-11-09T08:22:04.365Z,53.90
2022-11-09T08:24:32.474Z,54.07
2022-11-09T08:27:01.895Z,54.73
2022-11-09T08:29:30.676Z,54.03
2022-11-09T08:32:00.696Z,59.67
2022-11-09T08:34:29.747Z,54.00
2022-11-09T08:37:05.522Z,56.70
2022-11-09T08:39:33.723Z,51.07
2022-11-09T08:42:04.967Z,54.80
2022-11-09T08:44:33.667Z,54.40
2022-11-09T08:47:03.194Z,50.73
2022-11-09T08:49:32.496Z,51.00
2022-11-09T08:52:03.177Z,51.20
2022-11-09T08:54:33.987Z,50.40
2022-11-09T08:57:04.414Z,51.00
2022-11-09T08:59:32.856Z,61.33
2022-11-09T09:02:04.698Z,50.97
2022-11-09T09:04:33.778Z,52.67
2022-11-09T09:07:08.565Z,48.20
2022-11-09T09:09:37.881Z,51.17
2022-11-09T09:12:08.064Z,49.10
2022-11-09T09:14:37.371Z,48.17
2022-11-09T09:17:06.823Z,49.80
2022-11-09T09:19:35.882Z,46.53
2022-11-09T09:22:07.620Z,46.57
2022-11-09T09:24:36.786Z,64.20
2022-11-09T09:27:05.885Z,50.43
2022-11-09T09:29:34.757Z,45.97
2022-11-09T09:32:03.183Z,45.13
2022-11-09T09:34:31.953Z,47.00
2022-11-09T09:37:03.987Z,52.70
2022-11-09T09:39:39.108Z,53.30
2022-11-09T09:42:09.828Z,46.17
2022-11-09T09:44:41.954Z,46.43
2022-11-09T09:47:15.824Z,45.30
2022-11-09T09:49:47.585Z,44.90
2022-11-09T09:52:22.883Z,49.70
2022-11-09T09:55:00.438Z,39.53
2022-11-09T09:57:30.507Z,39.97
2022-11-09T10:00:05.074Z,46.43
2022-11-09T10:02:41.023Z,45.40
2022-11-09T10:05:17.068Z,44.10
2022-11-09T10:07:49.940Z,41.73
2022-11-09T10:10:29.988Z,39.93
2022-11-09T10:13:22.956Z,37.73
2022-11-09T10:15:55.837Z,42.23
2022-11-09T10:18:38.364Z,43.03
2022-11-09T10:21:16.291Z,37.60
2022-11-09T10:23:57.016Z,39.90
2022-11-09T10:26:37.306Z,48.70
2022-11-09T10:29:20.334Z,41.03
2022-11-09T10:31:50.810Z,45.60
2022-11-09T10:34:21.418Z,48.13
2022-11-09T10:37:01.204Z,43.20
2022-11-09T10:39:41.026Z,39.27
2022-11-09T10:42:34.079Z,36.37
2022-11-09T10:45:29.654Z,42.40
2022-11-09T10:48:34.565Z,39.00
2022-11-09T10:51:36.592Z,38.40
2022-11-09T10:54:28.695Z,38.67
2022-11-09T10:57:19.774Z,38.40
2022-11-09T11:00:18.622Z,38.17
2022-11-09T11:03:12.765Z,39.13
2022-11-09T11:06:03.057Z,34.03
2022-11-09T11:08:52.067Z,37.47
2022-11-09T11:11:41.627Z,36.23
2022-11-09T11:14:33.243Z,34.60
2022-11-09T11:17:37.698Z,42.07
2022-11-09T11:20:32.301Z,35.07
2022-11-09T11:23:22.891Z,39.10
2022-11-09T11:26:25.034Z,36.83
2022-11-09T11:29:25.800Z,36.60
2022-11-09T11:32:16.684Z,41.17
2022-11-09T11:35:14.405Z,38.53
2022-11-09T11:38:13.119Z,44.87
2022-11-09T11:41:31.463Z,42.73
2022-11-09T11:44:40.778Z,39.93
2022-11-09T11:47:39.361Z,45.00
2022-11-09T11:50:41.770Z,38.20
2022-11-09T11:53:43.723Z,46.97
2022-11-09T11:56:35.361Z,42.00
2022-11-09T11:59:39.551Z,44.73
2022-11-09T12:02:41.978Z,43.93
2022-11-09T12:05:48.900Z,38.73
2022-11-09T12:08:46.201Z,38.13
2022-11-09T12:11:45.813Z,41.03
2022-11-09T12:14:43.270Z,47.23
2022-11-09T12:17:39.874Z,44.67
2022-11-09T12:20:33.661Z,42.67
2022-11-09T12:23:39.170Z,47.63
2022-11-09T12:26:40.286Z,42.17
2022-11-09T12:29:34.017Z,41.13
2022-11-09T12:32:33.243Z,47.20
2022-11-09T12:35:26.023Z,47.70
2022-11-09T12:38:19.546Z,46.80
2022-11-09T12:41:14.675Z,45.00
2022-11-09T12:44:07.700Z,50.13
2022-11-09T12:47:01.377Z,48.07
2022-11-09T12:49:49.398Z,46.67
2022-11-09T12:52:39.648Z,43.63
2022-11-09T12:55:32.132Z,44.43
2022-11-09T12:58:28.692Z,42.70
2022-11-09T13:01:47.069Z,44.57
2022-11-09T13:04:36.228Z,44.60
2022-11-09T13:07:44.507Z,46.80
2022-11-09T13:10:34.547Z,46.33
2022-11-09T13:13:26.022Z,39.43
2022-11-09T13:16:33.398Z,46.23
2022-11-09T13:19:52.536Z,40.93
2022-11-09T13:23:07.740Z,42.40
2022-11-09T13:25:55.756Z,48.77
2022-11-09T13:29:18.724Z,43.33
2022-11-09T13:32:26.732Z,46.10
2022-11-09T13:35:55.586Z,43.97
2022-11-09T13:38:42.427Z,41.87
2022-11-09T13:41:42.891Z,43.60
2022-11-09T13:44:34.539Z,45.07
2022-11-09T13:47:33.813Z,43.63
2022-11-09T13:50:23.605Z,45.13
2022-11-09T13:53:29.475Z,42.27
2022-11-09T13:56:27.151Z,41.30
2022-11-09T13:59:19.563Z,52.30
2022-11-09T14:02:17.425Z,46.93
2022-11-09T14:05:24.757Z,54.10
2022-11-09T14:08:20.722Z,49.50
2022-11-09T14:11:24.905Z,47.77
2022-11-09T14:14:35.353Z,46.90
2022-11-09T14:17:31.469Z,45.27
2022-11-09T14:20:28.782Z,44.80
2022-11-09T14:23:27.745Z,42.73
2022-11-09T14:26:18.829Z,47.53
2022-11-09T14:29:14.950Z,45.93
2022-11-09T14:32:03.619Z,41.80
2022-11-09T14:34:51.166Z,45.30
2022-11-09T14:37:45.983Z,49.63
2022-11-09T14:40:34.924Z,44.37
2022-11-09T14:43:29.319Z,40.60
2022-11-09T14:46:26.560Z,47.27
2022-11-09T14:49:15.644Z,42.60
2022-11-09T14:52:03.685Z,39.07
2022-11-09T14:54:55.235Z,46.33
2022-11-09T14:57:43.493Z,41.30
2022-11-09T15:00:34.202Z,42.23
2022-11-09T15:03:25.637Z,49.03
2022-11-09T15:06:15.247Z,41.10
2022-11-09T15:09:10.160Z,40.67
2022-11-09T15:12:03.399Z,46.73
2022-11-09T15:14:54.857Z,46.57
2022-11-09T15:17:47.103Z,44.13
2022-11-09T15:20:35.426Z,46.83
2022-11-09T15:23:26.340Z,47.67
2022-11-09T15:26:30.171Z,48.97
2022-11-09T15:29:37.724Z,51.53
2022-11-09T15:32:26.214Z,44.83
2022-11-09T15:35:22.823Z,46.30
2022-11-09T15:38:32.237Z,46.07
2022-11-09T15:41:21.064Z,48.10
2022-11-09T15:44:09.276Z,48.67
2022-11-09T15:47:01.544Z,50.00
2022-11-09T15:49:49.373Z,48.00
2022-11-09T15:52:38.632Z,47.87
2022-11-09T15:55:25.861Z,51.00
2022-11-09T15:58:24.176Z,48.07
2022-11-09T16:01:13.257Z,52.53
2022-11-09T16:04:03.834Z,47.73
2022-11-09T16:06:53.794Z,47.10
2022-11-09T16:09:43.913Z,47.00
2022-11-09T16:12:32.627Z,51.90
2022-11-09T16:15:19.928Z,48.50
2022-11-09T16:18:08.066Z,46.43
2022-11-09T16:20:58.554Z,46.60
2022-11-09T16:23:48.846Z,48.00
2022-11-09T16:26:38.154Z,50.10
2022-11-09T16:29:29.229Z,46.30
2022-11-09T16:32:17.221Z,52.13
2022-11-09T16:35:28.868Z,43.13
2022-11-09T16:38:18.635Z,52.03
2022-11-09T16:41:15.686Z,45.53
2022-11-09T16:44:05.085Z,48.10
2022-11-09T16:46:54.685Z,41.73
2022-11-09T16:49:47.182Z,44.13
2022-11-09T16:52:34.715Z,56.13
2022-11-09T16:55:23.869Z,49.07
2022-11-09T16:58:11.487Z,41.87
2022-11-09T17:01:11.427Z,44.20
2022-11-09T17:04:09.879Z,53.57
2022-11-09T17:07:15.348Z,38.77
2022-11-09T17:10:10.050Z,38.43
2022-11-09T17:13:11.363Z,41.73
2022-11-09T17:16:06.170Z,43.80
2022-11-09T17:18:56.668Z,41.33
2022-11-09T17:21:44.894Z,40.27
2022-11-09T17:24:35.906Z,42.30
2022-11-09T17:27:24.892Z,45.47
2022-11-09T17:30:24.753Z,50.07
2022-11-09T17:33:13.315Z,45.63
2022-11-09T17:36:11.652Z,47.63
2022-11-09T17:39:07.809Z,55.53
2022-11-09T17:42:05.128Z,41.97
2022-11-09T17:44:53.973Z,54.77
2022-11-09T17:47:46.304Z,56.80
2022-11-09T17:50:35.779Z,53.40
2022-11-09T17:53:24.093Z,55.83
2022-11-09T17:56:13.340Z,52.60
2022-11-09T17:59:06.155Z,45.40
2022-11-09T18:01:56.783Z,46.60
2022-11-09T18:04:48.393Z,49.07
2022-11-09T18:07:36.222Z,50.50
2022-11-09T18:10:24.320Z,48.57
2022-11-09T18:13:12.477Z,46.90
2022-11-09T18:16:12.180Z,42.00
2022-11-09T18:19:04.938Z,42.20
2022-11-09T18:21:55.810Z,44.40
2022-11-09T18:24:47.777Z,48.90
2022-11-09T18:27:36.349Z,45.30
2022-11-09T18:30:27.863Z,42.57
2022-11-09T18:33:16.928Z,40.63
2022-11-09T18:36:09.590Z,45.60
2022-11-09T18:39:03.867Z,42.50
2022-11-09T18:41:54.624Z,50.00
2022-11-09T18:45:00.372Z,51.93
2022-11-09T18:47:51.041Z,58.27
2022-11-09T18:50:40.395Z,51.10
2022-11-09T18:53:36.009Z,46.40
2022-11-09T18:56:38.827Z,49.00
2022-11-09T18:59:27.192Z,56.33
2022-11-09T19:02:19.718Z,58.80
2022-11-09T19:05:10.367Z,49.27
2022-11-09T19:08:02.284Z,58.93
2022-11-09T19:10:52.338Z,53.90
2022-11-09T19:13:43.762Z,49.70
2022-11-09T19:16:32.679Z,55.10
2022-11-09T19:19:31.656Z,46.13
2022-11-09T19:22:21.577Z,48.37
2022-11-09T19:25:12.022Z,70.67
2022-11-09T19:28:03.055Z,52.10
2022-11-09T19:31:06.425Z,50.90
2022-11-09T19:33:55.067Z,54.80
2022-11-09T19:36:46.484Z,51.77
2022-11-09T19:39:40.371Z,48.43
2022-11-09T19:42:31.536Z,52.27
2022-11-09T19:45:20.649Z,48.10
2022-11-09T19:48:11.668Z,42.57
2022-11-09T19:51:04.098Z,41.20
2022-11-09T19:53:53.396Z,50.50
2022-11-09T19:56:44.957Z,54.37
2022-11-09T19:59:35.405Z,55.27
2022-11-09T20:02:25.923Z,48.07
2022-11-09T20:05:18.969Z,54.10
2022-11-09T20:08:07.725Z,52.70
2022-11-09T20:10:58.605Z,50.83
2022-11-09T20:13:48.487Z,43.77
2022-11-09T20:16:37.912Z,47.27
2022-11-09T20:19:28.381Z,49.90
2022-11-09T20:22:19.407Z,51.03
2022-11-09T20:25:10.703Z,49.37
2022-11-09T20:28:04.106Z,57.20
2022-11-09T20:31:00.266Z,47.80
2022-11-09T20:33:53.196Z,55.13
2022-11-09T20:36:44.197Z,51.10
2022-11-09T20:39:35.762Z,50.53
2022-11-09T20:42:24.543Z,47.10
2022-11-09T20:45:15.886Z,56.70
2022-11-09T20:48:24.619Z,50.23
2022-11-09T20:51:18.471Z,52.27
2022-11-09T20:54:08.070Z,58.93
2022-11-09T20:57:05.134Z,56.80
2022-11-09T21:00:00.997Z,48.57
2022-11-09T21:02:50.476Z,56.87
2022-11-09T21:05:38.587Z,53.00
2022-11-09T21:08:31.454Z,49.03
2022-11-09T21:11:18.968Z,49.43
2022-11-09T21:14:11.872Z,53.00
2022-11-09T21:17:14.905Z,49.67
2022-11-09T21:20:08.670Z,51.23
2022-11-09T21:23:15.821Z,52.20
2022-11-09T21:26:22.317Z,56.13
2022-11-09T21:29:31.988Z,52.73
2022-11-09T21:32:20.517Z,55.57
2022-11-09T21:35:09.921Z,56.77
2022-11-09T21:38:02.199Z,52.23
2022-11-09T21:40:50.946Z,47.07
2022-11-09T21:43:40.139Z,52.80
2022-11-09T21:46:28.801Z,58.73
2022-11-09T21:49:16.584Z,53.57
2022-11-09T21:52:04.688Z,54.93
2022-11-09T21:54:53.133Z,51.97
2022-11-09T21:57:40.695Z,53.73
2022-11-09T22:00:27.705Z,50.87
2022-11-09T22:03:15.740Z,50.67
2022-11-09T22:06:05.565Z,48.20
2022-11-09T22:08:53.965Z,55.10
2022-11-09T22:12:00.974Z,42.67
2022-11-09T22:15:21.007Z,47.40
2022-11-09T22:18:07.482Z,47.77
2022-11-09T22:20:57.207Z,50.77
2022-11-09T22:23:44.831Z,46.37
2022-11-09T22:26:33.522Z,42.57
2022-11-09T22:29:21.247Z,44.03
2022-11-09T22:32:09.050Z,47.10
2022-11-09T22:35:01.141Z,45.97
2022-11-09T22:37:49.996Z,39.20
2022-11-09T22:40:37.780Z,47.23
2022-11-09T22:43:24.741Z,43.20
2022-11-09T22:46:13.857Z,45.57
2022-11-09T22:49:05.432Z,40.03
2022-11-09T22:51:53.442Z,46.97
2022-11-09T22:54:43.219Z,37.37
2022-11-09T22:57:33.366Z,37.23
2022-11-09T23:00:20.750Z,39.60
2022-11-09T23:03:08.351Z,38.10
2022-11-09T23:06:05.056Z,41.47
2022-11-09T23:08:52.659Z,35.97
2022-11-09T23:11:41.182Z,36.27
2022-11-09T23:14:42.507Z,38.57
2022-11-09T23:17:46.637Z,39.50
2022-11-09T23:20:35.924Z,39.40
2022-11-09T23:23:22.877Z,41.10
2022-11-09T23:26:13.009Z,42.00
2022-11-09T23:29:04.782Z,38.50
2022-11-09T23:31:52.936Z,37.30
2022-11-09T23:34:39.604Z,53.57
2022-11-09T23:37:27.494Z,46.80
2022-11-09T23:40:16.157Z,44.00
2022-11-09T23:43:03.400Z,42.83
2022-11-09T23:45:53.091Z,41.60
2022-11-09T23:48:41.587Z,40.07
2022-11-09T23:51:28.202Z,39.83
2022-11-09T23:54:14.785Z,47.53
2022-11-09T23:57:05.097Z,43.93
2022-11-09T23:59:51.600Z,44.20
